createdAt,value
2022-09-17T00:12:06.531Z,100
2022-09-17T00:26:35.959Z,100
2022-09-17T00:41:05.673Z,100
2022-09-17T00:55:36.268Z,100
2022-09-17T01:10:05.881Z,100
2022-09-17T01:24:42.471Z,100
2022-09-17T01:39:14.572Z,100
2022-09-17T01:53:44.295Z,100
2022-09-17T02:08:16.505Z,100
2022-09-17T02:22:42.472Z,100
2022-09-17T02:37:12.132Z,100
2022-09-17T02:51:42.463Z,100
2022-09-17T03:06:08.273Z,100
2022-09-17T03:20:44.067Z,100
2022-09-17T03:35:16.530Z,100
2022-09-17T03:49:43.611Z,100
2022-09-17T04:04:19.569Z,100
2022-09-17T04:18:52.726Z,100
2022-09-17T04:33:18.900Z,100
2022-09-17T04:47:49.843Z,100
2022-09-17T05:02:25.721Z,100
2022-09-17T05:16:57.693Z,100
2022-09-17T05:31:29.647Z,100
2022-09-17T05:45:53.255Z,100
2022-09-17T06:00:23.963Z,100
2022-09-17T06:14:54.987Z,100
2022-09-17T06:29:24.190Z,100
2022-09-17T06:43:53.598Z,97.7
2022-09-17T06:58:24.123Z,98.5
2022-09-17T07:12:53.911Z,96.1
2022-09-17T07:27:25.256Z,96.2
2022-09-17T07:41:57.946Z,94.8
2022-09-17T07:56:33.543Z,94.8
2022-09-17T08:11:05.833Z,93.9
2022-09-17T08:25:36.680Z,85.2
2022-09-17T08:40:09.783Z,81.6
2022-09-17T08:54:39.488Z,79.7
2022-09-17T09:09:17.094Z,76.5
2022-09-17T09:23:47.847Z,69.7
2022-09-17T09:38:14.825Z,66.9
2022-09-17T09:52:42.946Z,67.8
2022-09-17T10:07:11.823Z,68.2
2022-09-17T10:21:44.017Z,63.7
2022-09-17T10:36:14.560Z,64.2
2022-09-17T10:50:46.377Z,64.8
2022-09-17T11:05:14.900Z,64.8
2022-09-17T11:19:44.267Z,69.4
2022-09-17T11:34:14.912Z,70.6
2022-09-17T11:48:43.765Z,74.2
2022-09-17T12:03:14.400Z,78.6
2022-09-17T12:17:43.193Z,77.9
2022-09-17T12:32:12.005Z,84.4
2022-09-17T12:46:38.863Z,86.5
2022-09-17T13:01:08.067Z,90.7
2022-09-17T13:15:38.263Z,89.2
2022-09-17T13:30:08.372Z,89.5
2022-09-17T13:44:39.082Z,85.6
2022-09-17T13:59:10.572Z,81
2022-09-17T14:13:40.980Z,79.3
2022-09-17T14:28:11.596Z,77.3
2022-09-17T14:42:39.972Z,80.9
2022-09-17T14:57:07.100Z,90.1
2022-09-17T15:11:34.363Z,89.5
2022-09-17T15:26:06.121Z,91.2
2022-09-17T15:40:35.620Z,89.5
2022-09-17T15:54:57.671Z,90.2
2022-09-17T16:09:28.067Z,92.1
2022-09-17T16:23:57.134Z,88.5
2022-09-17T16:38:25.668Z,94.2
2022-09-17T16:52:57.454Z,93.7
2022-09-17T17:07:28.636Z,96.1
2022-09-17T17:21:56.786Z,93.6
2022-09-17T17:36:26.323Z,90.1
2022-09-17T17:50:57.246Z,91.9
2022-09-17T18:05:25.000Z,91.1
2022-09-17T18:19:55.433Z,94
2022-09-17T18:34:24.031Z,95.1
2022-09-17T18:48:53.550Z,94.7
2022-09-17T19:03:22.772Z,95.3
2022-09-17T19:17:53.443Z,93.6
2022-09-17T19:32:22.009Z,95
2022-09-17T19:47:06.760Z,95.6
2022-09-17T20:01:29.421Z,93.9
2022-09-17T20:15:59.551Z,93.4
2022-09-17T20:30:29.832Z,94.6
2022-09-17T20:45:01.003Z,98.8
2022-09-17T20:59:29.030Z,97.2
2022-09-17T21:13:59.715Z,98.1
2022-09-17T21:28:28.099Z,100
2022-09-17T21:42:57.714Z,100
2022-09-17T21:57:26.567Z,100
2022-09-17T22:11:58.384Z,100
2022-09-17T22:26:27.867Z,100
2022-09-17T22:40:57.923Z,100
2022-09-17T22:55:28.327Z,100
2022-09-17T23:09:58.883Z,100
2022-09-17T23:24:29.404Z,100
2022-09-17T23:39:00.414Z,100
2022-09-17T23:53:30.053Z,100
